createdAt,value
2022-12-20T00:01:56.433Z,88.98
2022-12-20T00:07:56.346Z,88.71
2022-12-20T00:13:56.363Z,88.38
2022-12-20T00:19:56.285Z,88.36
2022-12-20T00:25:56.370Z,88.49
2022-12-20T00:31:56.397Z,88.34
2022-12-20T00:37:56.366Z,88.30
2022-12-20T00:43:56.397Z,88.90
2022-12-20T00:49:56.334Z,88.64
2022-12-20T00:55:56.376Z,89.11
2022-12-20T01:01:56.556Z,88.85
2022-12-20T01:07:56.413Z,88.12
2022-12-20T01:13:56.416Z,88.07
2022-12-20T01:19:56.402Z,87.80
2022-12-20T01:25:56.391Z,87.61
2022-12-20T01:31:56.459Z,88.18
2022-12-20T01:37:56.411Z,88.02
2022-12-20T01:43:56.452Z,88.46
2022-12-20T01:49:56.461Z,88.37
2022-12-20T01:55:56.411Z,88.91
2022-12-20T02:01:56.588Z,89.18
2022-12-20T02:07:56.382Z,89.35
2022-12-20T02:13:56.421Z,88.06
2022-12-20T02:19:56.419Z,88.28
2022-12-20T02:25:56.426Z,88.09
2022-12-20T02:31:56.457Z,88.46
2022-12-20T02:37:56.383Z,88.93
2022-12-20T02:43:56.366Z,88.31
2022-12-20T02:49:56.454Z,88.66
2022-12-20T02:55:56.434Z,89.30
2022-12-20T03:01:56.593Z,89.59
2022-12-20T03:07:56.527Z,90.05
2022-12-20T03:13:56.474Z,89.82
2022-12-20T03:19:56.470Z,89.51
2022-12-20T03:25:56.489Z,89.72
2022-12-20T03:31:56.479Z,88.96
2022-12-20T03:37:56.478Z,89.66
2022-12-20T03:43:56.521Z,89.27
2022-12-20T03:49:56.480Z,89.46
2022-12-20T03:55:56.492Z,90.09
2022-12-20T04:01:56.624Z,89.92
2022-12-20T04:07:56.477Z,90.19
2022-12-20T04:13:56.506Z,89.31
2022-12-20T04:19:56.505Z,88.37
2022-12-20T04:25:56.529Z,89.28
2022-12-20T04:31:56.595Z,89.17
2022-12-20T04:37:56.572Z,89.09
2022-12-20T04:43:56.546Z,88.51
2022-12-20T04:49:56.511Z,89.30
2022-12-20T04:55:56.536Z,88.79
2022-12-20T05:01:56.655Z,88.78
2022-12-20T05:07:56.570Z,88.53
2022-12-20T05:13:56.558Z,88.82
2022-12-20T05:19:56.574Z,89.36
2022-12-20T05:49:56.570Z,89.72
2022-12-20T05:55:56.564Z,89.32
2022-12-20T06:01:56.623Z,89.27
2022-12-20T06:13:56.595Z,89.74
2022-12-20T06:19:56.583Z,89.68
2022-12-20T06:25:56.539Z,90.06
2022-12-20T06:31:56.667Z,89.64
2022-12-20T06:49:56.600Z,89.92
2022-12-20T07:25:56.662Z,89.32
2022-12-20T07:31:56.790Z,88.52
2022-12-20T07:37:56.628Z,88.77
2022-12-20T07:43:56.682Z,88.11
2022-12-20T07:55:56.732Z,88.53
2022-12-20T08:13:58.298Z,88.93
2022-12-20T08:31:56.703Z,86.66
2022-12-20T08:37:56.736Z,86.43
2022-12-20T08:43:56.729Z,86.21
2022-12-20T08:49:56.669Z,87.35
2022-12-20T08:55:56.697Z,86.96
2022-12-20T09:01:56.887Z,86.59
2022-12-20T09:07:56.726Z,85.47
2022-12-20T09:13:56.686Z,86.46
2022-12-20T09:19:56.740Z,86.09
2022-12-20T09:25:56.742Z,87.68
2022-12-20T09:31:56.744Z,86.37
2022-12-20T09:37:56.754Z,86.79
2022-12-20T09:43:56.680Z,86.57
2022-12-20T09:49:56.725Z,86.11
2022-12-20T09:55:56.733Z,88.19
2022-12-20T10:01:56.893Z,88.91
2022-12-20T10:07:56.807Z,87.34
2022-12-20T10:13:56.764Z,85.87
2022-12-20T10:19:56.776Z,85.21
2022-12-20T10:25:56.757Z,85.92
2022-12-20T10:31:56.784Z,85.83
2022-12-20T10:38:07.178Z,86.85
2022-12-20T10:43:56.808Z,87.06
2022-12-20T10:49:56.791Z,87.24
2022-12-20T10:55:56.793Z,86.98
2022-12-20T11:01:56.864Z,87.00
2022-12-20T11:08:34.104Z,86.59
2022-12-20T11:13:56.814Z,86.43
2022-12-20T11:19:56.805Z,85.07
2022-12-20T11:25:56.815Z,85.06
2022-12-20T11:31:56.918Z,85.27
2022-12-20T11:37:56.818Z,86.53
2022-12-20T11:44:23.943Z,85.49
2022-12-20T11:49:56.844Z,85.93
2022-12-20T11:55:56.846Z,86.61
2022-12-20T12:01:56.994Z,87.32
2022-12-20T12:07:56.864Z,86.23
2022-12-20T12:13:56.843Z,86.83
2022-12-20T12:19:56.889Z,86.42
2022-12-20T12:25:56.892Z,85.48
2022-12-20T12:31:56.919Z,86.35
2022-12-20T12:37:56.882Z,86.19
2022-12-20T12:43:56.909Z,86.14
2022-12-20T12:49:56.890Z,86.94
2022-12-20T12:56:12.678Z,87.73
2022-12-20T13:01:57.055Z,87.50
2022-12-20T13:07:56.884Z,86.41
2022-12-20T13:13:56.906Z,85.21
2022-12-20T13:19:56.896Z,86.57
2022-12-20T13:25:56.921Z,86.93
2022-12-20T13:31:56.927Z,86.41
2022-12-20T13:37:56.932Z,86.20
2022-12-20T13:43:56.920Z,86.65
2022-12-20T13:49:56.927Z,86.59
2022-12-20T13:55:56.937Z,87.35
2022-12-20T14:01:57.155Z,85.16
2022-12-20T14:07:57.147Z,87.97
2022-12-20T14:13:56.928Z,87.16
2022-12-20T14:19:56.949Z,86.68
2022-12-20T14:25:56.983Z,87.29
2022-12-20T14:31:56.965Z,86.69
2022-12-20T14:37:56.963Z,87.41
2022-12-20T14:43:56.917Z,88.33
2022-12-20T14:49:56.960Z,88.43
2022-12-20T14:55:56.961Z,86.88
2022-12-20T15:01:57.118Z,86.58
2022-12-20T15:07:56.983Z,85.78
2022-12-20T15:13:56.969Z,86.00
2022-12-20T15:19:57.004Z,85.90
2022-12-20T15:25:57.014Z,87.07
2022-12-20T15:37:57.450Z,87.50
2022-12-20T15:49:57.903Z,87.77
2022-12-20T16:01:58.429Z,87.52
2022-12-20T16:13:58.801Z,88.56
2022-12-20T16:25:59.260Z,88.65
2022-12-20T16:37:59.667Z,87.72
2022-12-20T16:50:00.167Z,88.83
2022-12-20T17:02:00.775Z,88.32
2022-12-20T17:14:01.050Z,87.90
2022-12-20T17:26:01.500Z,88.15
2022-12-20T17:38:01.993Z,88.75
2022-12-20T17:50:02.418Z,89.24
2022-12-20T18:02:03.107Z,89.97
2022-12-20T18:14:03.310Z,91.02
2022-12-20T18:26:03.788Z,90.64
2022-12-20T18:38:04.187Z,91.02
2022-12-20T18:50:04.636Z,89.15
2022-12-20T19:02:05.296Z,89.47
2022-12-20T19:14:05.545Z,89.67
2022-12-20T19:26:06.007Z,90.05
2022-12-20T19:38:06.457Z,89.12
2022-12-20T19:50:06.905Z,89.62
2022-12-20T20:02:07.615Z,89.45
2022-12-20T20:14:07.841Z,89.08
2022-12-20T20:26:08.279Z,89.22
2022-12-20T20:38:08.721Z,90.25
2022-12-20T20:50:09.182Z,89.73
2022-12-20T21:02:09.773Z,90.43
2022-12-20T21:14:10.030Z,90.49
2022-12-20T21:26:10.499Z,90.09
2022-12-20T21:38:10.967Z,89.95
2022-12-20T21:50:11.416Z,88.45
2022-12-20T22:02:12.138Z,90.29
2022-12-20T22:14:12.296Z,90.81
2022-12-20T22:26:12.810Z,90.17
2022-12-20T22:38:13.255Z,90.76
2022-12-20T22:50:13.688Z,90.88
2022-12-20T23:02:14.333Z,91.82
2022-12-20T23:14:14.549Z,92.06
2022-12-20T23:26:15.049Z,91.64
2022-12-20T23:38:15.485Z,90.44
2022-12-20T23:50:15.943Z,90.86
